INDIA METEOROLOGICAL DEPARTMENT, R.M.C. NEW DELHI
Dated:23-01-2018
METARS


Agartala   
VEAT 231330Z 00000KT 3000 BR NSC 18/16 Q1010 NOSIG=
Ahmedabad  
VAAH 231330Z 00000KT 4000 FU NSC 22/09 Q1011 NOSIG=
Allahabad  
VEAB 1230Z 2500 HZ SKC 20/12 Q1008 BECMG 2000=
Amritsar   
VIAR 231330Z 00000KT 4000 BR SCT035 BKN100 11/09 Q1011 NOSIG=
Aurangabad 
VAAU 231200Z 34003KT 5000 HZ NSC 29/15 Q1010 NOSIG=
Bangalore  
COR VOBL 231330Z VRB02KT 6000 SCT012 25/13 Q1013 NOSIG=
Baroda     
VABO 231330Z 32008KT 6000 NSC 23/12 Q1010 NOSIG=
Bhaunagar  
VABV 231300Z 15002KT 5000 FU NSC 24/12 Q1010=
Bhopal     
VABP 231330Z 28009KT 6000 NSC 21/10 Q1011 NOSIG=
Bhubaneswar
VEBS 231330Z 20005KT 3000 HZ NSC 22/16 Q1010 NOSIG=
Chennai    
VOMM 231330Z 05008KT 5000 HZ FEW020 25/20 Q1010 NOSIG=
Coimbatore 
VOCB 231330Z 00000KT 5000 HZ FEW015 28/16 Q1010 NOSIG=
Colombo    
VCBI 231340Z 35004KT 9000 NSC 26/22 Q1008 NOSIG=
Delhi      
VIDP 231330Z 09010KT 1200 R28/P2000 R29/P2000 BR SCT030 BKN100 13/11 Q1009 NOSIG=
Dehradun   
VIDN 231330Z 00000KT 2000 RA BKN020 OVC060 11/10 Q1010=
Gauhati    
VEGT 231330Z 00000KT 2500 BR FEW018 SCT100 21/17 Q1010 NOSIG=
Gaya       
VEGY 231330Z NIL=
Goa        
VOGO 231330Z 33008KT 4000 HZ FEW090 27/20 Q1009 NOSIG=
Hyderabad  
VOHS 231330Z 14004KT 5000 HZ NSC 23/17 Q1012 NOSIG=
Imphal     
VEIM 231200Z 00000KT 5000 HZ FEW020 20/12 Q1011 NOSIG=
Indore     
VAID 231300Z 29005KT 5000 HZ NSC 21/09 Q1011 NOSIG=
Jabalpur   
VAJB 231300Z 00000KT 5000 HZ FEW025 SCT100 24/09 Q1010=
Jaipur     
VIJP 231330Z 29008KT 2500 HZ FEW030 20/M01 Q1010 NOSIG=
Khajuraho  
VEKO 231200Z 23004KT 6000 SCT025 27/13 Q1007=
Kochi      
VOCI 231330Z 25008KT 4000 HZ NSC 28/21 Q1008 NOSIG=
Kolkata    
VECC 231330Z 00000KT 2800 HZ NSC 21/13 Q1010 NOSIG=
Kozhikode  
VOCL 231330Z 30003KT 6000 NSC 27/20 Q1008 TEMPO 5000 HZ=
Lucknow    
VILK 231330Z 29008G18KT 1500 R27/2000 -TSRA SCT020 FEW030CB BKN090 19/09 Q1010 TEMPO 0800 TSRA=
Madurai    
VOMD 231300Z 09002KT 5000 HZ FEW020 28/18 Q1008 NOSIG=
Mumbai     
VABB 231330Z 33011KT 4000 FU NSC 24/13 Q1011 NOSIG=
Nagpur     
VANP 231330Z 00000KT3000 HZ NSC 25/11 Q1010 NOSIG=
Patna      
VEPT 231330Z 08003KT 1800 BR NSC 18/15 Q1009 NOSIG=
Raipur     
VERP 231200Z 22004KT 5000 HZ NSC 27/07 Q1010 NOSIG=
Safdarjung 
VIDD 231300Z 09004KT 1000 BR SCT030 BKN100 16/13 Q1009 NOSIG=
Surat     
VASU 231300Z 00000KT 6000 NSC 26/10 Q1010=
Ranchi     
VERC 231330Z 00000KT 4000 HZ NSC 20/09 Q1012 NOSIG=
Trichy     
VOTR 231330Z 12002KT 6000 FEW018 27/19 Q1008 NOSIG=
Trivandrum 
VOTV 231330Z 29003KT 4000 HZ FEW015 28/22 Q1008 NOSIG=
Udaipur    
VAUD 231300Z 04003KT 6000 NSC 21/04 Q1011 NOSIG =
Varanasi   
VEBN 231330Z 08002KT 1500 HZ NSC 19/12 Q1009 NOSIG=
Vizag      
VOVZ 231300Z VRB02KT 4000 HZ NSC 24/18 Q1010 NOSIG =
Male       
VRMM 231300Z 09003KT 6000 FEW018TCU BKN260 28/23 Q1008 NOSIG=
Gan        
VRMG 231300Z 27011KT 7000 SCT017TCU BKN260 29/24 Q1008 NOSIG=
Kathmandu  
VNKT 231350Z 19006KT 7000 FEW020 13/09 Q1014 NOSIG=
Dhaka      
VGHS 231330Z 31003KT 3500 HZ NSC 21/15 Q1011 NOSIG=
Colombo    
VCBI 231340Z 35004KT 9000 NSC 26/22 Q1008 NOSIG=
Karachi    
OPKC 231325Z 22009KT 4000 NSC 22/03 Q1012 NOSIG=
Lahore     
OPLA 231325Z 08006KT 4000 FU SCT040 SCT100 11/09 Q1011/A29.85=
Leh        
VILH 231330Z 29012G22KT 6000 FEW060 SCT090 BKN150 00/M19 Q1010 TEMPO 29020G30KT RMK AC=
Gorakhpur  
VEGK 231230Z 14003KT 2500 BR SKC 17/13 Q1009 BECMG 2000=
Gwalior    
VIGR 231330Z VRB02KT 3000 BR FEW030 15/13 Q1010 NOSIG=
Pune       
VAPO 231330Z 31007KT 6000 SKC 23/12 Q1013 NOSIG=